Time;durP1;ratioP1;P1;durP2;ratioP2;P2;SDS_P1;SDS_P2;PMS_P1;PMS_P2;Temp;Humidity;BMP_temperature;BMP_pressure;BME280_temperature;BME280_humidity;BME280_pressure;Samples;Min_cycle;Max_cycle;Signal;HPM_P1;HPM_P2
2022/05/28 00:01:13;;;;;;;8.63;7.82;;;15.40;74.20;;;;;;5048170;28;20037;-79
2022/05/28 00:03:39;;;;;;;8.85;8.05;;;15.40;74.40;;;;;;5029182;28;20036;-78
2022/05/28 00:06:12;;;;;;;11.38;7.75;;;15.40;74.40;;;;;;5043491;28;20034;-78
2022/05/28 00:08:38;;;;;;;8.77;7.90;;;15.30;74.40;;;;;;5028928;28;20095;-78
2022/05/28 00:11:11;;;;;;;9.70;8.32;;;15.30;74.60;;;;;;5028575;28;20541;-78
2022/05/28 00:13:37;;;;;;;8.65;7.93;;;15.40;74.40;;;;;;5025983;28;20032;-78
2022/05/28 00:16:04;;;;;;;9.20;8.32;;;15.30;74.50;;;;;;5026213;28;20472;-78
2022/05/28 00:18:31;;;;;;;9.85;8.85;;;15.40;74.40;;;;;;5026649;28;20026;-78
2022/05/28 00:20:57;;;;;;;9.15;8.32;;;15.50;74.00;;;;;;5036875;28;20048;-78
2022/05/28 00:23:23;;;;;;;9.38;8.63;;;15.70;73.50;;;;;;5000018;28;20045;-78
2022/05/28 00:25:50;;;;;;;8.98;8.18;;;15.60;73.30;;;;;;5027132;28;20743;-78
2022/05/28 00:28:21;;;;;;;11.82;8.45;;;15.50;74.00;;;;;;5026756;28;20040;-78
2022/05/28 00:30:47;;;;;;;10.02;8.65;;;15.40;74.40;;;;;;5027814;28;20040;-78
2022/05/28 00:33:14;;;;;;;9.93;8.10;;;15.40;74.40;;;;;;5010644;28;20041;-78
2022/05/28 00:35:40;;;;;;;9.15;8.30;;;15.30;74.50;;;;;;5025471;28;20025;-78
2022/05/28 00:38:06;;;;;;;13.15;9.55;;;15.10;75.50;;;;;;5025865;28;20030;-78
2022/05/28 00:40:32;;;;;;;13.50;9.60;;;15.10;75.60;;;;;;5025527;28;20022;-78
2022/05/28 00:42:59;;;;;;;16.40;9.65;;;15.00;75.70;;;;;;5026456;28;20038;-78
2022/05/28 00:45:25;;;;;;;11.15;10.02;;;15.00;75.70;;;;;;5041685;28;20034;-77
2022/05/28 00:47:53;;;;;;;12.32;10.65;;;15.00;75.70;;;;;;4991995;28;20503;-78
2022/05/28 00:50:19;;;;;;;11.13;10.13;;;14.90;76.00;;;;;;4989725;28;20025;-78
2022/05/28 00:52:45;;;;;;;11.63;10.52;;;15.00;76.30;;;;;;4989627;28;20033;-77
2022/05/28 00:55:12;;;;;;;11.15;10.02;;;14.80;76.60;;;;;;5007195;28;20046;-77
2022/05/28 00:57:39;;;;;;;11.38;9.95;;;14.70;77.10;;;;;;4989502;28;20034;-78
2022/05/28 01:00:08;;;;;;;11.82;10.30;;;14.70;77.10;;;;;;5009733;28;20026;-77
2022/05/28 01:02:39;;;;;;;11.38;9.80;;;14.70;77.40;;;;;;5013014;28;20041;-78
2022/05/28 01:05:26;;;;;;;12.73;9.98;;;14.80;77.00;;;;;;5014840;28;20033;-77
2022/05/28 01:08:15;;;;;;;10.10;9.07;;;14.70;77.10;;;;;;5030240;28;20380;-78
2022/05/28 01:10:59;;;;;;;10.50;9.43;;;14.70;77.00;;;;;;5040816;28;20377;-78
2022/05/28 01:13:54;;;;;;;10.90;9.85;;;14.80;76.70;;;;;;5018081;28;20040;-78
2022/05/28 01:16:47;;;;;;;10.25;9.35;;;15.00;76.00;;;;;;5006149;28;20039;-77
2022/05/28 01:19:36;;;;;;;10.82;9.82;;;15.00;76.00;;;;;;5009702;28;20022;-78
2022/05/28 01:22:51;;;;;;;10.32;9.48;;;14.90;76.10;;;;;;4993857;28;20049;-78
2022/05/28 01:25:48;;;;;;;11.57;10.30;;;14.90;76.70;;;;;;4995936;28;20358;-78
2022/05/28 01:28:15;;;;;;;12.73;10.05;;;15.00;75.70;;;;;;4994785;28;20528;-78
2022/05/28 01:30:42;;;;;;;10.63;9.63;;;15.00;75.70;;;;;;5011094;28;20034;-78
2022/05/28 01:33:08;;;;;;;13.02;10.25;;;14.90;76.20;;;;;;4994291;28;20041;-78
2022/05/28 01:35:34;;;;;;;14.48;10.52;;;14.80;76.10;;;;;;5008850;28;20034;-78
2022/05/28 01:38:00;;;;;;;11.85;9.95;;;14.90;76.30;;;;;;4992774;28;20061;-77
2022/05/28 01:40:27;;;;;;;12.93;10.07;;;14.90;75.90;;;;;;5011450;28;20025;-78
2022/05/28 01:42:54;;;;;;;10.68;9.68;;;14.90;76.20;;;;;;5010904;28;20049;-78
2022/05/28 01:45:21;;;;;;;11.73;10.50;;;14.90;75.70;;;;;;4979243;28;20037;-77
2022/05/28 01:47:49;;;;;;;12.13;10.75;;;15.00;75.20;;;;;;4994854;28;20416;-78
2022/05/28 01:50:15;;;;;;;11.07;10.20;;;15.00;75.20;;;;;;5011452;28;20057;-78
2022/05/28 01:52:41;;;;;;;11.65;10.40;;;15.00;75.00;;;;;;5011584;28;20029;-77
2022/05/28 01:55:07;;;;;;;11.32;9.85;;;15.00;75.40;;;;;;4992456;28;20030;-77
2022/05/28 01:57:33;;;;;;;11.60;9.52;;;14.70;76.50;;;;;;5012652;28;20400;-77
2022/05/28 02:00:00;;;;;;;10.82;9.70;;;14.70;76.70;;;;;;4995354;28;20041;-78
2022/05/28 02:02:26;;;;;;;17.25;9.50;;;14.60;76.90;;;;;;4978050;28;20056;-78
2022/05/28 02:04:52;;;;;;;10.52;9.60;;;14.50;77.40;;;;;;5008389;28;20041;-78
2022/05/28 02:07:18;;;;;;;10.90;9.35;;;14.40;77.50;;;;;;5009711;28;20023;-77
2022/05/28 02:09:53;;;;;;;12.93;9.23;;;14.40;77.80;;;;;;5010715;28;20429;-77
2022/05/28 02:12:25;;;;;;;15.23;9.98;;;14.40;77.80;;;;;;5006705;28;20034;-77
2022/05/28 02:15:06;;;;;;;12.20;10.07;;;14.40;78.00;;;;;;5008791;28;20037;-78
2022/05/28 02:17:50;;;;;;;11.55;9.40;;;14.40;77.50;;;;;;5008974;28;20026;-77
2022/05/28 02:20:35;;;;;;;10.90;9.45;;;14.40;77.70;;;;;;5011084;28;20390;-77
2022/05/28 02:23:07;;;;;;;14.07;9.43;;;14.40;77.60;;;;;;5008069;28;20392;-78
2022/05/28 02:25:41;;;;;;;9.70;8.70;;;14.30;77.80;;;;;;5011199;28;20028;-77
2022/05/28 02:28:07;;;;;;;13.88;9.45;;;14.30;78.20;;;;;;4993834;28;20029;-78
2022/05/28 02:30:33;;;;;;;10.30;8.98;;;14.40;77.60;;;;;;5015776;28;20025;-77
2022/05/28 02:33:02;;;;;;;10.27;9.30;;;14.50;77.20;;;;;;5030763;28;20037;-78
2022/05/28 02:35:28;;;;;;;12.25;8.90;;;14.60;76.60;;;;;;5030713;28;20021;-78
2022/05/28 02:37:54;;;;;;;13.95;9.32;;;14.60;76.20;;;;;;5028833;28;20038;-78
2022/05/28 02:40:20;;;;;;;9.93;9.00;;;14.40;77.00;;;;;;5029172;28;20018;-77
2022/05/28 02:42:46;;;;;;;13.35;9.73;;;14.30;77.40;;;;;;5030018;28;20041;-77
2022/05/28 02:45:13;;;;;;;11.52;9.50;;;14.40;77.20;;;;;;5028475;28;20388;-77
2022/05/28 02:47:39;;;;;;;12.85;9.77;;;14.40;77.30;;;;;;5028783;28;20040;-78
2022/05/28 02:50:05;;;;;;;12.25;9.30;;;14.40;76.80;;;;;;5027171;28;20049;-77
2022/05/28 02:52:32;;;;;;;11.73;8.98;;;14.30;77.40;;;;;;5007308;28;20057;-78
2022/05/28 02:54:58;;;;;;;10.80;9.18;;;14.00;78.50;;;;;;5044233;28;20384;-77
2022/05/28 02:57:24;;;;;;;12.63;8.98;;;14.00;78.80;;;;;;5030163;28;20029;-78
2022/05/28 02:59:50;;;;;;;12.45;8.98;;;14.00;78.70;;;;;;4996799;28;20041;-78
2022/05/28 03:02:16;;;;;;;11.43;9.00;;;14.10;78.60;;;;;;5028002;28;20912;-78
2022/05/28 03:04:42;;;;;;;16.38;8.93;;;14.20;78.00;;;;;;5028261;28;20017;-77
2022/05/28 03:07:08;;;;;;;10.77;8.90;;;14.30;77.10;;;;;;5012048;28;20038;-78
2022/05/28 03:09:34;;;;;;;9.70;8.57;;;14.20;77.20;;;;;;5031441;28;20052;-77
2022/05/28 03:12:00;;;;;;;11.93;8.68;;;14.20;77.00;;;;;;5029298;28;20418;-78
2022/05/28 03:14:27;;;;;;;10.25;8.63;;;14.10;77.70;;;;;;5013313;28;20026;-78
2022/05/28 03:16:53;;;;;;;10.48;8.82;;;13.90;77.90;;;;;;5026517;28;20029;-78
2022/05/28 03:19:19;;;;;;;10.18;8.85;;;13.80;78.60;;;;;;5028323;28;20026;-77
2022/05/28 03:21:45;;;;;;;13.55;9.07;;;13.70;79.00;;;;;;5014750;28;20042;-78
2022/05/28 03:24:11;;;;;;;12.38;8.65;;;13.70;79.20;;;;;;5027993;28;20040;-78
2022/05/28 03:26:37;;;;;;;13.18;8.82;;;13.70;79.00;;;;;;5028072;28;20383;-78
2022/05/28 03:29:04;;;;;;;10.00;8.35;;;13.60;79.10;;;;;;5029529;28;20040;-78
2022/05/28 03:31:30;;;;;;;15.05;9.32;;;13.60;79.30;;;;;;5029184;28;20033;-78
2022/05/28 03:33:56;;;;;;;12.60;9.48;;;13.80;78.80;;;;;;5027864;28;20488;-78
2022/05/28 03:36:23;;;;;;;13.13;8.23;;;14.00;77.90;;;;;;5012939;28;20097;-78
2022/05/28 03:38:49;;;;;;;12.10;8.50;;;14.10;76.90;;;;;;5026481;28;20021;-78
2022/05/28 03:41:15;;;;;;;10.75;9.30;;;14.10;76.70;;;;;;5010222;28;20040;-78
2022/05/28 03:43:41;;;;;;;10.25;9.13;;;14.10;76.70;;;;;;5026313;28;20033;-78
2022/05/28 03:46:25;;;;;;;11.82;9.07;;;14.10;76.50;;;;;;5026538;28;20411;-78
2022/05/28 03:48:52;;;;;;;12.07;8.95;;;14.10;76.70;;;;;;5028443;28;20028;-79
2022/05/28 03:51:18;;;;;;;10.98;8.82;;;14.00;76.80;;;;;;5012334;28;20033;-78
2022/05/28 03:53:44;;;;;;;10.35;9.25;;;13.90;77.40;;;;;;5024242;28;20033;-78
2022/05/28 03:56:11;;;;;;;13.02;9.10;;;13.80;77.40;;;;;;5026047;28;20025;-78
2022/05/28 03:58:37;;;;;;;12.43;8.73;;;13.80;77.50;;;;;;5026397;28;20033;-78
2022/05/28 04:01:03;;;;;;;12.45;9.27;;;13.80;77.80;;;;;;5026710;28;20029;-78
2022/05/28 04:03:30;;;;;;;9.85;8.82;;;13.80;77.50;;;;;;5013268;28;20411;-78
2022/05/28 04:05:56;;;;;;;13.10;8.70;;;13.90;77.50;;;;;;5009762;28;20026;-78
2022/05/28 04:08:23;;;;;;;11.18;9.05;;;13.90;77.20;;;;;;5009841;28;20052;-78
2022/05/28 04:10:49;;;;;;;11.75;8.68;;;13.90;76.80;;;;;;5026975;28;20046;-78
2022/05/28 04:13:15;;;;;;;11.15;8.77;;;14.10;76.10;;;;;;5027240;28;20586;-78
2022/05/28 04:15:41;;;;;;;10.55;9.38;;;14.10;75.60;;;;;;5027959;28;20044;-79
2022/05/28 04:18:07;;;;;;;11.15;9.07;;;14.20;75.40;;;;;;5028378;28;20511;-78
2022/05/28 04:20:34;;;;;;;12.90;9.27;;;14.20;74.90;;;;;;5025881;28;20021;-79
2022/05/28 04:23:00;;;;;;;11.85;8.73;;;14.30;74.60;;;;;;5027028;28;20475;-78
2022/05/28 04:25:26;;;;;;;13.73;9.15;;;14.40;74.10;;;;;;5025359;28;20046;-78
2022/05/28 04:27:53;;;;;;;12.73;8.85;;;14.40;74.00;;;;;;5027636;28;20041;-78
2022/05/28 04:30:19;;;;;;;12.45;8.88;;;14.40;74.00;;;;;;5027254;28;20040;-78
2022/05/28 04:32:45;;;;;;;10.25;8.55;;;14.40;73.80;;;;;;5009335;28;20029;-78
2022/05/28 04:35:12;;;;;;;13.25;8.60;;;14.40;73.60;;;;;;4995101;28;20037;-78
2022/05/28 04:37:38;;;;;;;13.73;8.77;;;14.50;73.40;;;;;;5028546;28;20040;-78
2022/05/28 04:40:04;;;;;;;12.18;8.60;;;14.40;73.20;;;;;;5026559;28;20064;-79
2022/05/28 04:42:31;;;;;;;9.65;8.10;;;14.40;73.30;;;;;;5030395;28;20025;-79
2022/05/28 04:44:57;;;;;;;9.98;8.52;;;14.40;73.30;;;;;;5028222;28;20036;-78
2022/05/28 04:47:23;;;;;;;9.93;8.93;;;14.40;73.40;;;;;;5027728;28;20029;-78
2022/05/28 04:49:50;;;;;;;12.13;9.07;;;14.40;72.90;;;;;;5026824;28;20041;-79
2022/05/28 04:52:16;;;;;;;14.35;9.20;;;14.30;73.50;;;;;;5026571;28;20029;-79
2022/05/28 04:54:42;;;;;;;13.30;8.82;;;14.30;73.90;;;;;;5028070;28;20031;-79
2022/05/28 04:57:08;;;;;;;10.05;9.05;;;14.30;73.90;;;;;;5027806;28;20042;-78
2022/05/28 04:59:34;;;;;;;11.93;8.85;;;14.10;74.70;;;;;;5026873;28;20033;-79
2022/05/28 05:02:00;;;;;;;13.13;9.18;;;14.00;75.40;;;;;;5027549;28;20388;-79
2022/05/28 05:04:26;;;;;;;12.90;9.40;;;13.90;75.80;;;;;;5026716;28;20030;-79
2022/05/28 05:06:52;;;;;;;13.68;9.10;;;13.90;75.90;;;;;;5009052;28;20038;-79
2022/05/28 05:09:18;;;;;;;11.23;8.93;;;13.90;76.40;;;;;;5028537;28;20040;-79
2022/05/28 05:11:45;;;;;;;12.30;8.80;;;13.90;76.90;;;;;;5000433;28;20057;-79
2022/05/28 05:14:11;;;;;;;13.20;8.70;;;13.80;77.40;;;;;;5018641;28;20056;-79
2022/05/28 05:16:37;;;;;;;12.52;9.02;;;13.90;78.40;;;;;;5008548;28;20033;-79
2022/05/28 05:19:03;;;;;;;11.63;9.80;;;14.00;77.50;;;;;;5027380;28;20033;-79
2022/05/28 05:21:29;;;;;;;13.63;9.82;;;14.10;76.90;;;;;;5028835;28;20040;-79
2022/05/28 05:23:55;;;;;;;13.57;9.75;;;14.10;76.40;;;;;;5008670;28;20049;-79
2022/05/28 05:26:22;;;;;;;10.70;9.57;;;14.20;76.70;;;;;;5026381;28;20025;-79
2022/05/28 05:28:48;;;;;;;15.77;9.32;;;14.30;75.90;;;;;;5028029;28;20033;-79
2022/05/28 05:31:14;;;;;;;12.98;9.15;;;14.40;75.30;;;;;;5025512;28;20045;-79
2022/05/28 05:33:40;;;;;;;10.88;8.63;;;14.40;74.90;;;;;;5027870;28;20037;-79
2022/05/28 05:36:06;;;;;;;11.20;8.27;;;14.60;74.40;;;;;;5011878;28;20037;-79
2022/05/28 05:38:32;;;;;;;11.57;8.05;;;14.70;73.40;;;;;;5010861;28;20049;-79
2022/05/28 05:40:58;;;;;;;14.90;8.55;;;14.60;73.10;;;;;;5025227;28;20499;-79
2022/05/28 05:43:25;;;;;;;10.77;8.77;;;14.60;73.20;;;;;;5026072;28;20049;-79
2022/05/28 05:46:00;;;;;;;12.60;8.98;;;14.80;73.00;;;;;;5028763;28;20037;-80
2022/05/28 05:48:27;;;;;;;11.07;8.50;;;14.80;72.30;;;;;;5030614;28;20034;-79
2022/05/28 05:50:53;;;;;;;13.82;8.70;;;15.00;71.90;;;;;;5028633;28;20060;-80
2022/05/28 05:53:19;;;;;;;10.43;8.38;;;15.00;71.30;;;;;;5029655;28;20025;-80
2022/05/28 05:55:45;;;;;;;13.43;8.63;;;15.20;71.40;;;;;;5031205;28;20395;-80
2022/05/28 05:58:12;;;;;;;14.27;8.50;;;15.40;70.70;;;;;;5013347;28;20045;-80
2022/05/28 06:00:39;;;;;;;11.02;8.68;;;15.70;69.40;;;;;;5032263;28;20044;-80
2022/05/28 06:03:05;;;;;;;13.98;8.85;;;15.80;68.70;;;;;;5029049;28;20062;-80
2022/05/28 06:05:31;;;;;;;15.00;8.48;;;16.00;68.20;;;;;;5029501;28;20034;-80
2022/05/28 06:07:57;;;;;;;10.15;9.15;;;16.10;67.90;;;;;;5030961;28;20037;-80
2022/05/28 06:10:24;;;;;;;14.52;9.40;;;16.00;66.50;;;;;;5030115;28;20042;-80
2022/05/28 06:12:50;;;;;;;12.43;9.45;;;16.10;66.70;;;;;;5013165;28;20044;-81
2022/05/28 06:15:16;;;;;;;14.77;9.27;;;16.10;66.10;;;;;;5030596;28;20463;-80
2022/05/28 06:17:42;;;;;;;10.15;9.10;;;16.20;66.20;;;;;;5029480;28;20033;-80
2022/05/28 06:20:10;;;;;;;12.10;9.07;;;16.20;65.70;;;;;;5030732;28;20056;-80
2022/05/28 06:22:36;;;;;;;16.15;9.70;;;16.10;65.50;;;;;;5031911;28;20037;-80
2022/05/28 06:25:03;;;;;;;15.57;9.45;;;16.10;65.80;;;;;;5029562;28;20033;-80
2022/05/28 06:27:30;;;;;;;11.70;9.63;;;16.10;65.10;;;;;;5015086;28;20052;-80
2022/05/28 06:29:57;;;;;;;14.02;9.20;;;16.40;64.40;;;;;;5013609;28;20049;-80
2022/05/28 06:32:23;;;;;;;12.48;9.40;;;16.50;63.60;;;;;;4995450;28;20033;-80
2022/05/28 06:34:49;;;;;;;14.18;10.18;;;16.50;63.20;;;;;;5029221;28;20479;-80
2022/05/28 06:37:15;;;;;;;13.80;9.65;;;16.50;63.50;;;;;;5028710;28;20045;-80
2022/05/28 06:39:41;;;;;;;13.55;9.73;;;16.70;63.50;;;;;;5030336;28;20041;-80
2022/05/28 06:42:07;;;;;;;14.82;9.63;;;16.80;62.00;;;;;;5014812;28;20025;-80
2022/05/28 06:44:34;;;;;;;11.88;10.65;;;16.80;62.60;;;;;;5027330;28;20041;-80
2022/05/28 06:47:02;;;;;;;12.07;10.50;;;16.90;63.80;;;;;;5028524;28;20038;-79
2022/05/28 06:49:28;;;;;;;15.20;10.90;;;17.00;61.50;;;;;;5011563;28;20038;-80
2022/05/28 06:51:54;;;;;;;15.57;10.95;;;17.10;61.60;;;;;;5030378;28;20752;-80
2022/05/28 06:54:20;;;;;;;17.92;10.80;;;17.00;61.30;;;;;;5013989;28;20049;-80
2022/05/28 06:56:46;;;;;;;13.38;10.82;;;17.10;62.30;;;;;;5026405;28;20037;-80
2022/05/28 06:59:12;;;;;;;12.63;10.82;;;17.30;61.60;;;;;;5027134;28;20032;-80
2022/05/28 07:01:38;;;;;;;12.30;10.80;;;17.40;60.90;;;;;;5026824;28;20034;-80
2022/05/28 07:04:04;;;;;;;14.48;11.65;;;17.40;60.30;;;;;;5028801;28;20034;-80
2022/05/28 07:06:32;;;;;;;14.50;11.60;;;17.30;60.70;;;;;;5030586;28;20021;-79
2022/05/28 07:08:58;;;;;;;15.93;12.45;;;17.40;60.20;;;;;;5027310;28;20029;-80
2022/05/28 07:11:24;;;;;;;16.08;11.30;;;17.30;61.00;;;;;;5026923;28;20045;-80
2022/05/28 07:13:50;;;;;;;15.02;11.23;;;17.50;60.20;;;;;;5010617;28;20032;-80
2022/05/28 07:16:16;;;;;;;15.77;11.88;;;17.50;60.20;;;;;;5026495;28;20503;-80
2022/05/28 07:18:43;;;;;;;12.30;11.27;;;17.40;59.90;;;;;;5031281;28;20082;-80
2022/05/28 07:21:09;;;;;;;15.85;11.15;;;17.30;59.90;;;;;;5029642;28;20395;-80
2022/05/28 07:23:36;;;;;;;13.77;12.40;;;17.40;59.90;;;;;;5028268;28;20484;-80
2022/05/28 07:26:04;;;;;;;13.85;11.55;;;17.50;59.60;;;;;;5029682;28;20030;-80
2022/05/28 07:28:31;;;;;;;17.17;11.10;;;17.50;59.60;;;;;;5012934;28;20042;-81
2022/05/28 07:31:01;;;;;;;19.00;11.90;;;17.60;59.40;;;;;;5028869;28;20496;-80
2022/05/28 07:33:28;;;;;;;12.88;11.52;;;17.70;59.40;;;;;;5030963;28;20025;-80
2022/05/28 07:35:55;;;;;;;14.55;11.57;;;17.70;59.20;;;;;;5029445;28;20044;-80
2022/05/28 07:38:22;;;;;;;16.35;11.02;;;17.90;58.70;;;;;;5029529;28;20032;-80
2022/05/28 07:40:48;;;;;;;17.60;12.07;;;17.90;59.20;;;;;;5029373;28;20052;-80
2022/05/28 07:43:14;;;;;;;15.98;12.15;;;18.10;58.40;;;;;;5009341;28;20050;-80
2022/05/28 07:45:43;;;;;;;18.90;11.77;;;18.30;57.60;;;;;;5028711;28;20025;-80
2022/05/28 07:48:09;;;;;;;14.13;12.23;;;18.50;57.80;;;;;;5029048;28;20037;-80
2022/05/28 07:50:35;;;;;;;18.65;12.52;;;18.50;57.10;;;;;;5010144;28;20025;-80
2022/05/28 07:53:01;;;;;;;13.95;11.93;;;18.40;57.10;;;;;;5026407;28;20033;-80
2022/05/28 07:55:28;;;;;;;16.77;11.70;;;18.50;57.00;;;;;;5028869;28;20037;-80
2022/05/28 07:57:54;;;;;;;14.98;12.25;;;18.60;57.00;;;;;;5010898;28;20042;-80
2022/05/28 08:00:20;;;;;;;19.00;11.93;;;18.80;56.80;;;;;;5027786;28;20029;-81
2022/05/28 08:02:46;;;;;;;19.05;12.02;;;18.90;56.40;;;;;;5026304;28;20040;-80
2022/05/28 08:05:13;;;;;;;16.70;12.50;;;19.00;55.90;;;;;;5028133;28;20033;-80
2022/05/28 08:07:39;;;;;;;14.57;11.50;;;19.30;54.80;;;;;;5028159;28;20495;-80
2022/05/28 08:10:06;;;;;;;14.43;13.10;;;19.40;55.40;;;;;;5009582;28;20045;-81
2022/05/28 08:12:32;;;;;;;15.95;13.07;;;19.60;54.00;;;;;;5009317;28;20029;-81
2022/05/28 08:14:58;;;;;;;14.05;12.73;;;19.80;54.10;;;;;;5027247;28;20044;-81
2022/05/28 08:17:25;;;;;;;14.85;13.38;;;20.00;53.40;;;;;;5026802;28;20048;-81
2022/05/28 08:19:51;;;;;;;16.08;14.02;;;20.20;51.50;;;;;;5027080;28;20047;-81
2022/05/28 08:25:02;;;;;;;14.85;13.50;;;20.20;51.50;;;;;;5032204;28;20515;-80
2022/05/28 08:27:28;;;;;;;15.13;13.75;;;20.30;51.30;;;;;;5029010;28;20052;-80
2022/05/28 08:29:54;;;;;;;15.82;14.25;;;20.30;50.70;;;;;;5027048;28;20379;-80
2022/05/28 08:32:20;;;;;;;16.85;13.50;;;20.30;51.50;;;;;;5026348;28;20406;-81
2022/05/28 08:34:46;;;;;;;17.92;13.40;;;20.40;50.90;;;;;;5027011;28;20038;-80
2022/05/28 08:37:12;;;;;;;14.80;13.27;;;20.10;50.80;;;;;;5027390;28;20037;-80
2022/05/28 08:39:38;;;;;;;20.23;14.18;;;20.20;50.70;;;;;;5061677;28;20048;-80
2022/05/28 08:42:05;;;;;;;15.50;14.02;;;20.30;50.70;;;;;;4993482;28;20038;-80
2022/05/28 08:44:41;;;;;;;16.08;13.60;;;20.40;50.20;;;;;;5025056;28;20045;-81
2022/05/28 08:47:21;;;;;;;15.05;12.75;;;20.40;50.60;;;;;;5012269;28;20022;-80
2022/05/28 08:49:48;;;;;;;15.45;13.95;;;20.60;51.30;;;;;;5028243;28;20060;-81
2022/05/28 08:52:33;;;;;;;16.40;13.80;;;20.70;50.00;;;;;;5028705;28;20033;-80
2022/05/28 08:55:27;;;;;;;14.77;13.43;;;20.80;50.90;;;;;;5026275;28;20034;-81
2022/05/28 08:57:59;;;;;;;15.52;13.65;;;20.90;49.50;;;;;;5011459;28;20034;-81
2022/05/28 09:00:33;;;;;;;16.38;14.43;;;21.00;49.30;;;;;;5012152;28;20026;-81
2022/05/28 09:03:25;;;;;;;14.65;13.15;;;21.20;48.40;;;;;;5025260;28;20036;-81
2022/05/28 09:06:02;;;;;;;14.63;13.45;;;21.30;48.90;;;;;;5025293;28;20030;-81
2022/05/28 09:08:44;;;;;;;15.98;14.35;;;21.30;47.90;;;;;;5009591;28;20034;-81
2022/05/28 09:11:16;;;;;;;15.80;14.43;;;21.50;47.50;;;;;;4995369;28;20048;-81
2022/05/28 09:13:47;;;;;;;15.50;14.20;;;21.40;47.70;;;;;;5012337;28;20025;-81
2022/05/28 09:16:31;;;;;;;15.18;13.88;;;21.40;47.80;;;;;;5025481;28;20388;-81
2022/05/28 09:19:02;;;;;;;15.88;14.40;;;21.50;47.20;;;;;;5009724;28;20045;-81
2022/05/28 09:21:28;;;;;;;15.88;14.38;;;21.60;47.00;;;;;;5015655;28;20026;-81
2022/05/28 09:23:54;;;;;;;16.35;14.85;;;21.50;46.90;;;;;;4996411;28;20053;-81
2022/05/28 09:26:47;;;;;;;15.32;14.00;;;21.70;47.10;;;;;;5030303;28;20033;-81
2022/05/28 09:30:06;;;;;;;15.30;13.80;;;21.70;47.00;;;;;;5031762;28;20040;-81
2022/05/28 09:32:36;;;;;;;16.35;14.57;;;21.90;46.50;;;;;;4990129;28;20056;-81
2022/05/28 09:35:17;;;;;;;16.55;14.95;;;22.00;46.10;;;;;;4991191;28;20030;-81
2022/05/28 09:38:18;;;;;;;16.55;15.00;;;22.00;45.30;;;;;;4990412;28;20374;-81
2022/05/28 09:40:52;;;;;;;15.65;14.23;;;22.00;45.30;;;;;;4976793;28;20500;-81
2022/05/28 09:43:49;;;;;;;15.65;14.45;;;21.80;45.30;;;;;;4974675;28;20049;-81
2022/05/28 09:46:25;;;;;;;15.07;13.85;;;21.80;45.90;;;;;;4966337;28;20043;-81
2022/05/28 09:49:05;;;;;;;17.10;14.27;;;22.10;45.00;;;;;;4955774;28;20049;-81
2022/05/28 09:51:32;;;;;;;16.08;14.65;;;22.10;44.50;;;;;;4972393;28;20057;-81
2022/05/28 09:54:17;;;;;;;16.40;14.75;;;22.00;45.10;;;;;;4938871;28;20078;-81
2022/05/28 09:56:46;;;;;;;16.00;14.52;;;22.20;45.20;;;;;;4954697;28;20046;-81
2022/05/28 09:59:27;;;;;;;16.88;15.48;;;22.20;45.00;;;;;;4955028;28;20449;-81
2022/05/28 10:02:12;;;;;;;;;;;22.30;44.20;;;;;;4979865;28;20046;-81
2022/05/28 10:04:47;;;;;;;15.82;14.32;;;22.30;43.40;;;;;;4991171;28;19921;-81
2022/05/28 10:07:14;;;;;;;16.63;15.23;;;22.30;43.60;;;;;;4942449;28;20034;-81
2022/05/28 10:09:50;;;;;;;17.95;16.67;;;22.50;42.90;;;;;;5015430;28;20052;-81
2022/05/28 10:12:22;;;;;;;16.65;15.23;;;22.50;42.90;;;;;;4993663;28;20407;-81
2022/05/28 10:15:17;;;;;;;15.93;14.55;;;22.50;42.40;;;;;;5014446;28;20036;-81
2022/05/28 10:17:56;;;;;;;15.88;14.48;;;22.50;41.50;;;;;;4995777;28;20041;-80
2022/05/28 10:20:23;;;;;;;18.15;16.55;;;22.60;42.80;;;;;;5008429;28;20045;-80
2022/05/28 10:22:51;;;;;;;16.63;15.10;;;22.70;41.70;;;;;;4994853;28;20033;-80
2022/05/28 10:25:50;;;;;;;18.23;16.58;;;22.60;42.10;;;;;;5009190;28;20366;-80
2022/05/28 10:28:27;;;;;;;16.05;14.90;;;22.50;42.10;;;;;;4994762;28;20384;-80
2022/05/28 10:30:53;;;;;;;15.65;14.40;;;22.60;41.10;;;;;;5016639;28;20049;-80
2022/05/28 10:33:21;;;;;;;16.92;15.48;;;22.60;41.60;;;;;;5013434;28;20041;-80
2022/05/28 10:35:47;;;;;;;16.80;15.30;;;22.90;41.10;;;;;;5011708;28;20026;-80
2022/05/28 10:38:22;;;;;;;16.88;15.50;;;23.10;41.40;;;;;;5028139;28;20029;-80
2022/05/28 10:41:02;;;;;;;17.95;16.40;;;23.10;41.40;;;;;;5012803;28;20028;-80
2022/05/28 10:43:36;;;;;;;18.40;17.10;;;23.20;41.40;;;;;;5030310;28;20480;-81
2022/05/28 10:46:12;;;;;;;21.60;20.17;;;23.40;38.20;;;;;;5029025;28;20402;-80
2022/05/28 10:48:57;;;;;;;18.60;17.30;;;23.30;37.90;;;;;;5028419;28;20041;-80
2022/05/28 10:51:30;;;;;;;18.02;16.15;;;23.00;39.10;;;;;;5031254;28;20041;-80
2022/05/28 10:54:25;;;;;;;17.23;15.85;;;23.00;39.40;;;;;;5030240;28;20036;-80
2022/05/28 10:56:55;;;;;;;18.52;17.33;;;23.00;39.90;;;;;;5028380;28;20053;-80
2022/05/28 10:59:37;;;;;;;18.50;16.97;;;23.20;38.10;;;;;;5028683;28;20044;-81
2022/05/28 11:02:06;;;;;;;19.23;17.70;;;23.30;37.90;;;;;;5029728;28;20291;-81
2022/05/28 11:04:32;;;;;;;18.35;16.85;;;23.30;37.60;;;;;;5028310;28;20041;-80
2022/05/28 11:07:13;;;;;;;19.23;17.73;;;23.40;37.90;;;;;;5029667;28;20049;-80
2022/05/28 11:10:09;;;;;;;20.48;18.65;;;23.60;37.70;;;;;;5028427;28;20049;-80
2022/05/28 11:12:49;;;;;;;18.92;17.25;;;23.60;36.20;;;;;;5027669;28;20045;-80
2022/05/28 11:15:24;;;;;;;22.10;20.70;;;23.70;37.10;;;;;;5012585;28;20045;-80
2022/05/28 11:18:17;;;;;;;18.92;17.52;;;23.60;36.70;;;;;;5027054;28;20026;-80
2022/05/28 11:20:58;;;;;;;17.05;15.70;;;23.40;37.70;;;;;;5027945;28;20036;-81
2022/05/28 11:23:50;;;;;;;19.23;17.75;;;23.40;37.40;;;;;;5026890;28;20479;-81
2022/05/28 11:26:25;;;;;;;18.92;17.40;;;23.60;36.70;;;;;;5027140;28;20375;-80
2022/05/28 11:29:02;;;;;;;19.63;17.85;;;23.70;37.20;;;;;;5012598;28;20049;-81
2022/05/28 11:31:33;;;;;;;19.58;17.98;;;23.90;36.80;;;;;;5026509;28;20500;-81
2022/05/28 11:34:07;;;;;;;18.58;17.00;;;23.70;35.70;;;;;;5027673;28;20047;-81
2022/05/28 11:36:38;;;;;;;19.10;17.48;;;23.60;36.10;;;;;;4994974;28;20506;-81
2022/05/28 11:39:44;;;;;;;20.88;19.48;;;23.80;36.30;;;;;;5044696;28;20038;-81
2022/05/28 11:42:20;;;;;;;20.33;18.83;;;24.00;34.40;;;;;;5028760;28;20045;-81
2022/05/28 11:44:54;;;;;;;18.42;17.23;;;24.00;33.10;;;;;;5029139;28;20041;-81
2022/05/28 11:47:26;;;;;;;19.67;18.27;;;23.80;35.20;;;;;;5009197;28;20064;-81
2022/05/28 11:53:00;;;;;;;17.75;16.45;;;23.60;37.10;;;;;;5031555;28;20041;-81
2022/05/28 11:55:27;;;;;;;19.40;17.90;;;23.80;35.80;;;;;;5027853;28;20022;-81
2022/05/28 11:57:57;;;;;;;19.80;18.20;;;23.90;33.90;;;;;;5044003;28;20045;-81
2022/05/28 12:00:24;;;;;;;19.98;18.58;;;24.00;34.80;;;;;;5044388;28;20041;-81
2022/05/28 12:02:59;;;;;;;21.48;20.17;;;24.20;34.30;;;;;;5029100;28;20021;-81
2022/05/28 12:05:47;;;;;;;19.17;17.83;;;24.10;32.40;;;;;;5028499;28;20523;-80
2022/05/28 12:08:39;;;;;;;18.42;16.85;;;23.60;34.10;;;;;;5028986;28;20018;-80
2022/05/28 12:11:23;;;;;;;18.00;16.70;;;23.40;35.40;;;;;;5028615;28;20080;-81
2022/05/28 12:13:57;;;;;;;19.60;18.05;;;23.50;35.70;;;;;;5025296;28;20502;-81
2022/05/28 12:16:36;;;;;;;19.42;18.00;;;23.60;35.70;;;;;;5010905;28;20046;-81
2022/05/28 12:19:08;;;;;;;20.10;18.60;;;23.60;34.70;;;;;;5026531;28;20040;-81
2022/05/28 12:21:38;;;;;;;19.23;17.73;;;23.70;35.10;;;;;;5009052;28;20060;-81
2022/05/28 12:24:19;;;;;;;18.90;17.52;;;23.80;35.50;;;;;;5027876;28;20052;-81
2022/05/28 12:27:20;;;;;;;20.45;19.23;;;24.00;35.40;;;;;;5027254;28;20037;-81
2022/05/28 12:30:01;;;;;;;19.33;17.60;;;24.20;35.40;;;;;;5026603;28;20471;-81
2022/05/28 12:32:48;;;;;;;23.75;22.10;;;24.20;36.40;;;;;;5008868;28;20039;-81
2022/05/28 12:35:32;;;;;;;19.23;17.65;;;24.20;35.70;;;;;;5028428;28;20037;-81
2022/05/28 12:38:08;;;;;;;18.90;17.50;;;24.10;36.10;;;;;;5008487;28;20041;-80
2022/05/28 12:40:52;;;;;;;20.73;19.20;;;24.40;34.70;;;;;;5027034;28;20033;-81
2022/05/28 12:43:26;;;;;;;20.17;18.45;;;24.40;33.50;;;;;;5012627;28;20479;-80
2022/05/28 12:45:53;;;;;;;21.38;19.45;;;24.30;35.10;;;;;;5009482;28;20511;-81
2022/05/28 12:48:28;;;;;;;21.55;20.25;;;24.40;33.60;;;;;;5043994;28;20030;-81
2022/05/28 12:51:17;;;;;;;22.02;20.15;;;24.30;33.40;;;;;;5008190;28;20037;-81
2022/05/28 12:53:56;;;;;;;18.77;17.48;;;24.10;34.60;;;;;;5028348;28;20056;-80
2022/05/28 12:56:35;;;;;;;18.65;17.17;;;23.90;35.90;;;;;;5031617;28;20025;-81
2022/05/28 12:59:17;;;;;;;21.55;19.63;;;23.90;36.60;;;;;;5030919;28;20049;-81